sensor_id;sensor_type;location;lat;lon;timestamp;P1;durP1;ratioP1;P2;durP2;ratioP2
10540;SDS011;5318;50.844;4.272;2022-08-01T00:02:00;1.60;;;1.60;;
10540;SDS011;5318;50.844;4.272;2022-08-01T00:04:27;1.60;;;1.60;;
10540;SDS011;5318;50.844;4.272;2022-08-01T00:06:53;1.57;;;1.57;;
10540;SDS011;5318;50.844;4.272;2022-08-01T00:09:20;2.25;;;2.25;;
10540;SDS011;5318;50.844;4.272;2022-08-01T00:11:47;2.67;;;2.67;;
10540;SDS011;5318;50.844;4.272;2022-08-01T00:14:13;2.17;;;2.17;;
10540;SDS011;5318;50.844;4.272;2022-08-01T00:16:40;2.27;;;2.27;;
10540;SDS011;5318;50.844;4.272;2022-08-01T00:19:07;2.17;;;2.17;;
10540;SDS011;5318;50.844;4.272;2022-08-01T00:21:33;2.45;;;2.45;;
10540;SDS011;5318;50.844;4.272;2022-08-01T00:24:00;2.20;;;2.20;;
10540;SDS011;5318;50.844;4.272;2022-08-01T00:26:26;2.53;;;2.53;;
10540;SDS011;5318;50.844;4.272;2022-08-01T00:28:53;1.60;;;1.60;;
10540;SDS011;5318;50.844;4.272;2022-08-01T00:31:19;2.00;;;2.00;;
10540;SDS011;5318;50.844;4.272;2022-08-01T00:33:47;2.10;;;2.10;;
10540;SDS011;5318;50.844;4.272;2022-08-01T00:36:13;1.77;;;1.77;;
10540;SDS011;5318;50.844;4.272;2022-08-01T00:38:40;1.40;;;1.40;;
10540;SDS011;5318;50.844;4.272;2022-08-01T00:41:06;1.77;;;1.77;;
10540;SDS011;5318;50.844;4.272;2022-08-01T00:43:33;1.63;;;1.63;;
10540;SDS011;5318;50.844;4.272;2022-08-01T00:45:59;1.87;;;1.87;;
10540;SDS011;5318;50.844;4.272;2022-08-01T00:48:26;1.80;;;1.80;;
10540;SDS011;5318;50.844;4.272;2022-08-01T00:50:52;2.15;;;2.15;;
10540;SDS011;5318;50.844;4.272;2022-08-01T00:53:19;2.00;;;2.00;;
10540;SDS011;5318;50.844;4.272;2022-08-01T00:55:46;2.17;;;2.17;;
10540;SDS011;5318;50.844;4.272;2022-08-01T00:58:12;1.63;;;1.63;;
10540;SDS011;5318;50.844;4.272;2022-08-01T01:00:39;1.53;;;1.53;;
10540;SDS011;5318;50.844;4.272;2022-08-01T01:03:06;2.13;;;2.13;;
10540;SDS011;5318;50.844;4.272;2022-08-01T01:05:35;2.07;;;2.07;;
10540;SDS011;5318;50.844;4.272;2022-08-01T01:08:02;2.45;;;2.45;;
10540;SDS011;5318;50.844;4.272;2022-08-01T01:10:29;2.12;;;2.12;;
10540;SDS011;5318;50.844;4.272;2022-08-01T01:13:05;2.40;;;2.40;;
10540;SDS011;5318;50.844;4.272;2022-08-01T01:15:51;2.30;;;2.30;;
10540;SDS011;5318;50.844;4.272;2022-08-01T01:18:23;2.60;;;2.60;;
10540;SDS011;5318;50.844;4.272;2022-08-01T01:23:46;2.33;;;2.33;;
10540;SDS011;5318;50.844;4.272;2022-08-01T01:29:17;3.77;;;3.77;;
10540;SDS011;5318;50.844;4.272;2022-08-01T01:31:58;3.33;;;3.33;;
10540;SDS011;5318;50.844;4.272;2022-08-01T01:34:23;3.57;;;3.57;;
10540;SDS011;5318;50.844;4.272;2022-08-01T01:36:50;4.17;;;4.17;;
10540;SDS011;5318;50.844;4.272;2022-08-01T01:39:16;5.07;;;5.07;;
10540;SDS011;5318;50.844;4.272;2022-08-01T01:41:43;3.97;;;3.97;;
10540;SDS011;5318;50.844;4.272;2022-08-01T01:44:09;4.87;;;4.87;;
10540;SDS011;5318;50.844;4.272;2022-08-01T01:46:36;4.40;;;4.40;;
10540;SDS011;5318;50.844;4.272;2022-08-01T01:49:03;4.37;;;4.37;;
10540;SDS011;5318;50.844;4.272;2022-08-01T01:51:29;4.93;;;4.93;;
10540;SDS011;5318;50.844;4.272;2022-08-01T01:53:56;3.50;;;3.50;;
10540;SDS011;5318;50.844;4.272;2022-08-01T01:56:22;5.03;;;5.03;;
10540;SDS011;5318;50.844;4.272;2022-08-01T01:58:50;3.77;;;3.77;;
10540;SDS011;5318;50.844;4.272;2022-08-01T02:01:15;3.77;;;3.77;;
10540;SDS011;5318;50.844;4.272;2022-08-01T02:03:42;4.87;;;4.87;;
10540;SDS011;5318;50.844;4.272;2022-08-01T02:06:09;3.40;;;3.40;;
10540;SDS011;5318;50.844;4.272;2022-08-01T02:08:36;5.47;;;5.47;;
10540;SDS011;5318;50.844;4.272;2022-08-01T02:11:02;5.33;;;5.33;;
10540;SDS011;5318;50.844;4.272;2022-08-01T02:13:30;5.97;;;5.97;;
10540;SDS011;5318;50.844;4.272;2022-08-01T02:15:55;6.60;;;6.60;;
10540;SDS011;5318;50.844;4.272;2022-08-01T02:18:22;6.47;;;6.47;;
10540;SDS011;5318;50.844;4.272;2022-08-01T02:20:48;6.23;;;6.23;;
10540;SDS011;5318;50.844;4.272;2022-08-01T02:23:15;5.73;;;5.73;;
10540;SDS011;5318;50.844;4.272;2022-08-01T02:25:42;6.97;;;6.97;;
10540;SDS011;5318;50.844;4.272;2022-08-01T02:28:13;5.53;;;5.53;;
10540;SDS011;5318;50.844;4.272;2022-08-01T02:30:38;5.80;;;5.80;;
10540;SDS011;5318;50.844;4.272;2022-08-01T02:33:17;6.60;;;6.50;;
10540;SDS011;5318;50.844;4.272;2022-08-01T02:35:43;6.73;;;6.63;;
10540;SDS011;5318;50.844;4.272;2022-08-01T02:38:09;6.07;;;6.07;;
10540;SDS011;5318;50.844;4.272;2022-08-01T02:40:35;6.50;;;6.40;;
10540;SDS011;5318;50.844;4.272;2022-08-01T02:43:02;5.23;;;5.23;;
10540;SDS011;5318;50.844;4.272;2022-08-01T02:45:28;5.10;;;5.10;;
10540;SDS011;5318;50.844;4.272;2022-08-01T02:47:56;4.77;;;4.77;;
10540;SDS011;5318;50.844;4.272;2022-08-01T02:50:21;4.10;;;4.10;;
10540;SDS011;5318;50.844;4.272;2022-08-01T02:52:49;4.23;;;4.23;;
10540;SDS011;5318;50.844;4.272;2022-08-01T02:55:15;4.57;;;4.57;;
10540;SDS011;5318;50.844;4.272;2022-08-01T02:57:42;4.50;;;4.50;;
10540;SDS011;5318;50.844;4.272;2022-08-01T03:00:08;4.93;;;4.93;;
10540;SDS011;5318;50.844;4.272;2022-08-01T03:02:35;4.43;;;4.43;;
10540;SDS011;5318;50.844;4.272;2022-08-01T03:05:01;5.37;;;5.37;;
10540;SDS011;5318;50.844;4.272;2022-08-01T03:07:28;6.40;;;6.40;;
10540;SDS011;5318;50.844;4.272;2022-08-01T03:09:54;5.90;;;5.90;;
10540;SDS011;5318;50.844;4.272;2022-08-01T03:12:23;6.37;;;6.37;;
10540;SDS011;5318;50.844;4.272;2022-08-01T03:14:47;5.00;;;5.00;;
10540;SDS011;5318;50.844;4.272;2022-08-01T03:17:14;7.30;;;7.30;;
10540;SDS011;5318;50.844;4.272;2022-08-01T03:19:40;6.43;;;6.43;;
10540;SDS011;5318;50.844;4.272;2022-08-01T03:22:08;5.40;;;5.40;;
10540;SDS011;5318;50.844;4.272;2022-08-01T03:24:35;5.53;;;5.53;;
10540;SDS011;5318;50.844;4.272;2022-08-01T03:27:01;6.40;;;6.40;;
10540;SDS011;5318;50.844;4.272;2022-08-01T03:29:27;6.80;;;6.80;;
10540;SDS011;5318;50.844;4.272;2022-08-01T03:31:54;9.20;;;9.10;;
10540;SDS011;5318;50.844;4.272;2022-08-01T03:34:20;7.40;;;7.37;;
10540;SDS011;5318;50.844;4.272;2022-08-01T03:36:48;9.93;;;9.82;;
10540;SDS011;5318;50.844;4.272;2022-08-01T03:39:14;9.93;;;9.82;;
10540;SDS011;5318;50.844;4.272;2022-08-01T03:41:41;8.70;;;8.60;;
10540;SDS011;5318;50.844;4.272;2022-08-01T03:44:10;7.47;;;7.47;;
10540;SDS011;5318;50.844;4.272;2022-08-01T03:46:40;8.37;;;8.37;;
10540;SDS011;5318;50.844;4.272;2022-08-01T03:49:04;10.07;;;9.97;;
10540;SDS011;5318;50.844;4.272;2022-08-01T03:51:29;10.50;;;10.40;;
10540;SDS011;5318;50.844;4.272;2022-08-01T03:53:56;10.23;;;10.23;;
10540;SDS011;5318;50.844;4.272;2022-08-01T03:56:22;9.83;;;9.73;;
10540;SDS011;5318;50.844;4.272;2022-08-01T03:58:49;9.63;;;9.53;;
10540;SDS011;5318;50.844;4.272;2022-08-01T04:01:15;9.48;;;9.48;;
10540;SDS011;5318;50.844;4.272;2022-08-01T04:03:42;8.97;;;8.97;;
10540;SDS011;5318;50.844;4.272;2022-08-01T04:06:08;10.37;;;10.27;;
10540;SDS011;5318;50.844;4.272;2022-08-01T04:08:38;11.17;;;11.07;;
10540;SDS011;5318;50.844;4.272;2022-08-01T04:11:04;10.67;;;10.57;;
10540;SDS011;5318;50.844;4.272;2022-08-01T04:13:32;7.87;;;7.87;;
10540;SDS011;5318;50.844;4.272;2022-08-01T04:15:58;8.90;;;8.90;;
10540;SDS011;5318;50.844;4.272;2022-08-01T04:18:25;8.27;;;8.27;;
10540;SDS011;5318;50.844;4.272;2022-08-01T04:20:51;8.97;;;8.90;;
10540;SDS011;5318;50.844;4.272;2022-08-01T04:23:19;9.13;;;9.13;;
10540;SDS011;5318;50.844;4.272;2022-08-01T04:25:44;8.57;;;8.57;;
10540;SDS011;5318;50.844;4.272;2022-08-01T04:28:12;9.18;;;9.18;;
10540;SDS011;5318;50.844;4.272;2022-08-01T04:30:37;10.03;;;10.03;;
10540;SDS011;5318;50.844;4.272;2022-08-01T04:33:04;10.00;;;10.00;;
10540;SDS011;5318;50.844;4.272;2022-08-01T04:35:30;10.13;;;10.10;;
10540;SDS011;5318;50.844;4.272;2022-08-01T04:37:58;11.23;;;11.13;;
10540;SDS011;5318;50.844;4.272;2022-08-01T04:40:24;11.37;;;11.27;;
10540;SDS011;5318;50.844;4.272;2022-08-01T04:42:51;11.97;;;11.87;;
10540;SDS011;5318;50.844;4.272;2022-08-01T04:45:17;8.47;;;8.47;;
10540;SDS011;5318;50.844;4.272;2022-08-01T04:47:44;11.20;;;11.10;;
10540;SDS011;5318;50.844;4.272;2022-08-01T04:50:11;13.37;;;13.27;;
10540;SDS011;5318;50.844;4.272;2022-08-01T04:52:37;13.37;;;13.27;;
10540;SDS011;5318;50.844;4.272;2022-08-01T04:55:04;9.40;;;9.40;;
10540;SDS011;5318;50.844;4.272;2022-08-01T04:57:30;10.60;;;10.50;;
10540;SDS011;5318;50.844;4.272;2022-08-01T04:59:57;12.30;;;12.20;;
10540;SDS011;5318;50.844;4.272;2022-08-01T05:02:23;10.23;;;10.13;;
10540;SDS011;5318;50.844;4.272;2022-08-01T05:04:50;11.87;;;11.77;;
10540;SDS011;5318;50.844;4.272;2022-08-01T05:07:17;13.32;;;13.23;;
10540;SDS011;5318;50.844;4.272;2022-08-01T05:09:43;12.97;;;12.87;;
10540;SDS011;5318;50.844;4.272;2022-08-01T05:12:10;12.50;;;12.40;;
10540;SDS011;5318;50.844;4.272;2022-08-01T05:14:36;12.43;;;12.33;;
10540;SDS011;5318;50.844;4.272;2022-08-01T05:17:03;11.00;;;10.90;;
10540;SDS011;5318;50.844;4.272;2022-08-01T05:19:30;11.37;;;11.27;;
10540;SDS011;5318;50.844;4.272;2022-08-01T05:21:56;10.27;;;10.17;;
10540;SDS011;5318;50.844;4.272;2022-08-01T05:24:22;11.80;;;11.70;;
10540;SDS011;5318;50.844;4.272;2022-08-01T05:26:49;13.45;;;13.35;;
10540;SDS011;5318;50.844;4.272;2022-08-01T05:29:15;11.13;;;11.03;;
10540;SDS011;5318;50.844;4.272;2022-08-01T05:31:43;12.13;;;12.03;;
10540;SDS011;5318;50.844;4.272;2022-08-01T05:34:09;12.23;;;12.13;;
10540;SDS011;5318;50.844;4.272;2022-08-01T05:36:36;12.95;;;12.85;;
10540;SDS011;5318;50.844;4.272;2022-08-01T05:39:03;13.00;;;12.90;;
10540;SDS011;5318;50.844;4.272;2022-08-01T05:41:29;12.82;;;12.73;;
10540;SDS011;5318;50.844;4.272;2022-08-01T05:43:56;9.97;;;9.87;;
10540;SDS011;5318;50.844;4.272;2022-08-01T05:46:23;8.33;;;8.33;;
10540;SDS011;5318;50.844;4.272;2022-08-01T05:48:49;8.60;;;8.60;;
10540;SDS011;5318;50.844;4.272;2022-08-01T05:51:16;8.95;;;8.95;;
10540;SDS011;5318;50.844;4.272;2022-08-01T05:53:42;7.50;;;7.50;;
10540;SDS011;5318;50.844;4.272;2022-08-01T05:56:09;8.30;;;8.30;;
10540;SDS011;5318;50.844;4.272;2022-08-01T05:58:36;6.93;;;6.93;;
10540;SDS011;5318;50.844;4.272;2022-08-01T06:01:02;8.60;;;8.60;;
10540;SDS011;5318;50.844;4.272;2022-08-01T06:03:29;8.60;;;8.60;;
10540;SDS011;5318;50.844;4.272;2022-08-01T06:05:55;7.30;;;7.30;;
10540;SDS011;5318;50.844;4.272;2022-08-01T06:08:22;7.40;;;7.40;;
10540;SDS011;5318;50.844;4.272;2022-08-01T06:10:49;7.47;;;7.47;;
10540;SDS011;5318;50.844;4.272;2022-08-01T06:13:16;7.20;;;7.20;;
10540;SDS011;5318;50.844;4.272;2022-08-01T06:15:42;5.73;;;5.73;;
10540;SDS011;5318;50.844;4.272;2022-08-01T06:18:09;6.73;;;6.73;;
10540;SDS011;5318;50.844;4.272;2022-08-01T06:20:35;7.00;;;7.00;;
10540;SDS011;5318;50.844;4.272;2022-08-01T06:23:02;7.13;;;7.13;;
10540;SDS011;5318;50.844;4.272;2022-08-01T06:25:28;7.78;;;7.78;;
10540;SDS011;5318;50.844;4.272;2022-08-01T06:27:55;5.93;;;5.93;;
10540;SDS011;5318;50.844;4.272;2022-08-01T06:30:21;6.43;;;6.43;;
10540;SDS011;5318;50.844;4.272;2022-08-01T06:32:49;5.47;;;5.47;;
10540;SDS011;5318;50.844;4.272;2022-08-01T06:35:15;5.30;;;5.30;;
10540;SDS011;5318;50.844;4.272;2022-08-01T06:37:42;5.20;;;5.20;;
10540;SDS011;5318;50.844;4.272;2022-08-01T06:40:09;5.17;;;5.17;;
10540;SDS011;5318;50.844;4.272;2022-08-01T06:42:35;4.23;;;4.23;;
10540;SDS011;5318;50.844;4.272;2022-08-01T06:45:05;3.93;;;3.93;;
10540;SDS011;5318;50.844;4.272;2022-08-01T06:47:32;4.00;;;4.00;;
10540;SDS011;5318;50.844;4.272;2022-08-01T06:49:58;3.67;;;3.67;;
10540;SDS011;5318;50.844;4.272;2022-08-01T06:52:25;4.20;;;4.20;;
10540;SDS011;5318;50.844;4.272;2022-08-01T06:54:51;4.47;;;4.47;;
10540;SDS011;5318;50.844;4.272;2022-08-01T06:57:18;4.00;;;4.00;;
10540;SDS011;5318;50.844;4.272;2022-08-01T06:59:44;3.40;;;3.40;;
10540;SDS011;5318;50.844;4.272;2022-08-01T07:02:11;4.03;;;4.03;;
10540;SDS011;5318;50.844;4.272;2022-08-01T07:04:37;3.33;;;3.33;;
10540;SDS011;5318;50.844;4.272;2022-08-01T07:07:04;3.63;;;3.63;;
10540;SDS011;5318;50.844;4.272;2022-08-01T07:09:31;3.07;;;3.07;;
10540;SDS011;5318;50.844;4.272;2022-08-01T07:11:57;2.78;;;2.78;;
10540;SDS011;5318;50.844;4.272;2022-08-01T07:14:24;2.43;;;2.43;;
10540;SDS011;5318;50.844;4.272;2022-08-01T07:16:50;2.85;;;2.85;;
10540;SDS011;5318;50.844;4.272;2022-08-01T07:19:17;2.60;;;2.60;;
10540;SDS011;5318;50.844;4.272;2022-08-01T07:21:43;2.50;;;2.50;;
10540;SDS011;5318;50.844;4.272;2022-08-01T07:24:11;2.55;;;2.55;;
10540;SDS011;5318;50.844;4.272;2022-08-01T07:26:36;2.60;;;2.60;;
10540;SDS011;5318;50.844;4.272;2022-08-01T07:29:03;2.60;;;2.60;;
10540;SDS011;5318;50.844;4.272;2022-08-01T07:31:30;2.40;;;2.40;;
10540;SDS011;5318;50.844;4.272;2022-08-01T07:33:57;2.27;;;2.27;;
10540;SDS011;5318;50.844;4.272;2022-08-01T07:36:23;2.07;;;2.07;;
10540;SDS011;5318;50.844;4.272;2022-08-01T07:38:50;1.80;;;1.80;;
10540;SDS011;5318;50.844;4.272;2022-08-01T07:41:16;1.97;;;1.97;;
10540;SDS011;5318;50.844;4.272;2022-08-01T07:43:43;1.40;;;1.40;;
10540;SDS011;5318;50.844;4.272;2022-08-01T07:46:09;1.70;;;1.70;;
10540;SDS011;5318;50.844;4.272;2022-08-01T07:48:36;1.87;;;1.87;;
10540;SDS011;5318;50.844;4.272;2022-08-01T07:51:03;2.20;;;2.20;;
10540;SDS011;5318;50.844;4.272;2022-08-01T07:53:29;1.90;;;1.90;;
10540;SDS011;5318;50.844;4.272;2022-08-01T07:55:56;2.00;;;2.00;;
10540;SDS011;5318;50.844;4.272;2022-08-01T07:58:22;2.00;;;2.00;;
10540;SDS011;5318;50.844;4.272;2022-08-01T08:00:49;2.57;;;2.57;;
10540;SDS011;5318;50.844;4.272;2022-08-01T08:03:15;1.80;;;1.80;;
10540;SDS011;5318;50.844;4.272;2022-08-01T08:05:42;2.60;;;2.60;;
10540;SDS011;5318;50.844;4.272;2022-08-01T08:08:08;1.70;;;1.70;;
10540;SDS011;5318;50.844;4.272;2022-08-01T08:10:35;2.17;;;2.17;;
10540;SDS011;5318;50.844;4.272;2022-08-01T08:13:02;2.08;;;2.08;;
10540;SDS011;5318;50.844;4.272;2022-08-01T08:15:28;2.30;;;2.30;;
10540;SDS011;5318;50.844;4.272;2022-08-01T08:17:55;2.15;;;2.15;;
10540;SDS011;5318;50.844;4.272;2022-08-01T08:20:21;2.40;;;2.40;;
10540;SDS011;5318;50.844;4.272;2022-08-01T08:22:48;2.20;;;2.20;;
10540;SDS011;5318;50.844;4.272;2022-08-01T08:25:14;1.87;;;1.87;;
10540;SDS011;5318;50.844;4.272;2022-08-01T08:27:41;2.07;;;2.07;;
10540;SDS011;5318;50.844;4.272;2022-08-01T08:30:07;2.20;;;2.20;;
10540;SDS011;5318;50.844;4.272;2022-08-01T08:32:34;2.43;;;2.43;;
10540;SDS011;5318;50.844;4.272;2022-08-01T08:35:00;2.43;;;2.43;;
10540;SDS011;5318;50.844;4.272;2022-08-01T08:37:27;2.80;;;2.80;;
10540;SDS011;5318;50.844;4.272;2022-08-01T08:39:54;3.13;;;3.13;;
10540;SDS011;5318;50.844;4.272;2022-08-01T08:42:20;2.70;;;2.70;;
10540;SDS011;5318;50.844;4.272;2022-08-01T08:44:47;2.53;;;2.53;;
10540;SDS011;5318;50.844;4.272;2022-08-01T08:47:14;2.85;;;2.85;;
10540;SDS011;5318;50.844;4.272;2022-08-01T08:49:42;2.87;;;2.87;;
10540;SDS011;5318;50.844;4.272;2022-08-01T08:52:10;2.10;;;2.10;;
10540;SDS011;5318;50.844;4.272;2022-08-01T08:54:37;2.00;;;2.00;;
10540;SDS011;5318;50.844;4.272;2022-08-01T08:57:03;2.60;;;2.60;;
10540;SDS011;5318;50.844;4.272;2022-08-01T08:59:30;2.23;;;2.23;;
10540;SDS011;5318;50.844;4.272;2022-08-01T09:01:57;2.20;;;2.20;;
10540;SDS011;5318;50.844;4.272;2022-08-01T09:04:23;2.00;;;2.00;;
10540;SDS011;5318;50.844;4.272;2022-08-01T09:06:50;2.30;;;2.30;;
10540;SDS011;5318;50.844;4.272;2022-08-01T09:09:16;1.70;;;1.70;;
10540;SDS011;5318;50.844;4.272;2022-08-01T09:11:43;2.05;;;2.05;;
10540;SDS011;5318;50.844;4.272;2022-08-01T09:14:11;1.87;;;1.87;;
10540;SDS011;5318;50.844;4.272;2022-08-01T09:16:42;1.87;;;1.87;;
10540;SDS011;5318;50.844;4.272;2022-08-01T09:19:15;1.47;;;1.47;;
10540;SDS011;5318;50.844;4.272;2022-08-01T09:21:57;1.50;;;1.50;;
10540;SDS011;5318;50.844;4.272;2022-08-01T09:24:25;1.37;;;1.37;;
10540;SDS011;5318;50.844;4.272;2022-08-01T09:26:51;1.57;;;1.57;;
10540;SDS011;5318;50.844;4.272;2022-08-01T09:29:18;1.70;;;1.70;;
10540;SDS011;5318;50.844;4.272;2022-08-01T09:31:48;1.57;;;1.57;;
10540;SDS011;5318;50.844;4.272;2022-08-01T09:34:25;1.47;;;1.47;;
10540;SDS011;5318;50.844;4.272;2022-08-01T09:36:51;1.30;;;1.30;;
10540;SDS011;5318;50.844;4.272;2022-08-01T09:39:17;1.33;;;1.33;;
10540;SDS011;5318;50.844;4.272;2022-08-01T09:41:43;1.30;;;1.30;;
10540;SDS011;5318;50.844;4.272;2022-08-01T09:44:09;1.53;;;1.53;;
10540;SDS011;5318;50.844;4.272;2022-08-01T09:46:36;1.40;;;1.40;;
10540;SDS011;5318;50.844;4.272;2022-08-01T09:49:03;1.30;;;1.30;;
10540;SDS011;5318;50.844;4.272;2022-08-01T09:53:55;1.30;;;1.30;;
10540;SDS011;5318;50.844;4.272;2022-08-01T09:56:22;1.40;;;1.40;;
10540;SDS011;5318;50.844;4.272;2022-08-01T09:58:49;1.80;;;1.80;;
10540;SDS011;5318;50.844;4.272;2022-08-01T10:01:15;1.40;;;1.40;;
10540;SDS011;5318;50.844;4.272;2022-08-01T10:03:45;1.20;;;1.20;;
10540;SDS011;5318;50.844;4.272;2022-08-01T10:06:27;1.10;;;1.10;;
10540;SDS011;5318;50.844;4.272;2022-08-01T10:08:45;1.13;;;1.13;;
10540;SDS011;5318;50.844;4.272;2022-08-01T10:11:11;1.40;;;1.40;;
10540;SDS011;5318;50.844;4.272;2022-08-01T10:13:37;1.10;;;1.10;;
10540;SDS011;5318;50.844;4.272;2022-08-01T10:16:05;1.00;;;1.00;;
10540;SDS011;5318;50.844;4.272;2022-08-01T10:18:32;1.00;;;1.00;;
10540;SDS011;5318;50.844;4.272;2022-08-01T10:20:57;0.83;;;0.83;;
10540;SDS011;5318;50.844;4.272;2022-08-01T10:23:24;1.10;;;1.10;;
10540;SDS011;5318;50.844;4.272;2022-08-01T10:25:50;1.00;;;1.00;;
10540;SDS011;5318;50.844;4.272;2022-08-01T10:28:17;0.97;;;0.97;;
10540;SDS011;5318;50.844;4.272;2022-08-01T10:30:44;0.80;;;0.80;;
10540;SDS011;5318;50.844;4.272;2022-08-01T10:33:10;1.13;;;1.13;;
10540;SDS011;5318;50.844;4.272;2022-08-01T10:35:38;1.00;;;1.00;;
10540;SDS011;5318;50.844;4.272;2022-08-01T10:38:04;0.83;;;0.83;;
10540;SDS011;5318;50.844;4.272;2022-08-01T10:40:30;0.80;;;0.80;;
10540;SDS011;5318;50.844;4.272;2022-08-01T10:42:57;1.10;;;1.10;;
10540;SDS011;5318;50.844;4.272;2022-08-01T10:45:23;1.08;;;1.08;;
10540;SDS011;5318;50.844;4.272;2022-08-01T10:48:02;0.90;;;0.90;;
10540;SDS011;5318;50.844;4.272;2022-08-01T10:50:31;1.03;;;1.03;;
10540;SDS011;5318;50.844;4.272;2022-08-01T10:53:10;0.90;;;0.90;;
10540;SDS011;5318;50.844;4.272;2022-08-01T10:58:30;1.00;;;1.00;;
10540;SDS011;5318;50.844;4.272;2022-08-01T11:03:38;0.80;;;0.80;;
10540;SDS011;5318;50.844;4.272;2022-08-01T11:06:04;1.20;;;1.20;;
10540;SDS011;5318;50.844;4.272;2022-08-01T11:08:31;0.97;;;0.97;;
10540;SDS011;5318;50.844;4.272;2022-08-01T11:11:01;0.90;;;0.90;;
10540;SDS011;5318;50.844;4.272;2022-08-01T11:16:25;1.00;;;1.00;;
10540;SDS011;5318;50.844;4.272;2022-08-01T11:18:51;0.98;;;0.98;;
10540;SDS011;5318;50.844;4.272;2022-08-01T11:21:18;0.83;;;0.83;;
10540;SDS011;5318;50.844;4.272;2022-08-01T11:23:48;1.25;;;1.25;;
10540;SDS011;5318;50.844;4.272;2022-08-01T11:26:14;1.00;;;1.00;;
10540;SDS011;5318;50.844;4.272;2022-08-01T11:28:40;0.83;;;0.83;;
10540;SDS011;5318;50.844;4.272;2022-08-01T11:38:41;0.83;;;0.83;;
10540;SDS011;5318;50.844;4.272;2022-08-01T11:41:14;0.83;;;0.83;;
10540;SDS011;5318;50.844;4.272;2022-08-01T11:51:48;0.83;;;0.83;;
10540;SDS011;5318;50.844;4.272;2022-08-01T11:54:15;0.90;;;0.90;;
10540;SDS011;5318;50.844;4.272;2022-08-01T11:56:41;1.00;;;1.00;;
10540;SDS011;5318;50.844;4.272;2022-08-01T11:59:08;1.30;;;1.30;;
10540;SDS011;5318;50.844;4.272;2022-08-01T12:01:34;0.70;;;0.70;;
10540;SDS011;5318;50.844;4.272;2022-08-01T12:04:01;1.00;;;1.00;;
10540;SDS011;5318;50.844;4.272;2022-08-01T12:06:28;0.83;;;0.83;;
10540;SDS011;5318;50.844;4.272;2022-08-01T12:08:54;1.00;;;1.00;;
10540;SDS011;5318;50.844;4.272;2022-08-01T12:11:20;0.80;;;0.80;;
10540;SDS011;5318;50.844;4.272;2022-08-01T12:13:47;0.98;;;0.98;;
10540;SDS011;5318;50.844;4.272;2022-08-01T12:16:13;0.90;;;0.90;;
10540;SDS011;5318;50.844;4.272;2022-08-01T12:18:41;1.00;;;1.00;;
10540;SDS011;5318;50.844;4.272;2022-08-01T12:21:07;1.00;;;1.00;;
10540;SDS011;5318;50.844;4.272;2022-08-01T12:23:34;0.80;;;0.80;;
10540;SDS011;5318;50.844;4.272;2022-08-01T12:26:00;1.10;;;1.10;;
10540;SDS011;5318;50.844;4.272;2022-08-01T12:28:27;0.93;;;0.93;;
10540;SDS011;5318;50.844;4.272;2022-08-01T12:30:53;0.90;;;0.90;;
10540;SDS011;5318;50.844;4.272;2022-08-01T12:33:20;0.90;;;0.90;;
10540;SDS011;5318;50.844;4.272;2022-08-01T12:35:47;1.10;;;1.10;;
10540;SDS011;5318;50.844;4.272;2022-08-01T12:38:17;1.10;;;1.10;;
10540;SDS011;5318;50.844;4.272;2022-08-01T12:40:44;1.10;;;1.10;;
10540;SDS011;5318;50.844;4.272;2022-08-01T12:43:10;0.90;;;0.90;;
10540;SDS011;5318;50.844;4.272;2022-08-01T12:45:37;1.03;;;1.03;;
10540;SDS011;5318;50.844;4.272;2022-08-01T12:48:06;1.70;;;1.70;;
10540;SDS011;5318;50.844;4.272;2022-08-01T12:50:30;0.90;;;0.90;;
10540;SDS011;5318;50.844;4.272;2022-08-01T12:52:56;0.90;;;0.90;;
10540;SDS011;5318;50.844;4.272;2022-08-01T12:55:23;1.10;;;1.10;;
10540;SDS011;5318;50.844;4.272;2022-08-01T12:57:50;1.00;;;1.00;;
10540;SDS011;5318;50.844;4.272;2022-08-01T13:00:23;0.90;;;0.90;;
10540;SDS011;5318;50.844;4.272;2022-08-01T13:02:49;1.10;;;1.10;;
10540;SDS011;5318;50.844;4.272;2022-08-01T13:05:15;1.07;;;1.07;;
10540;SDS011;5318;50.844;4.272;2022-08-01T13:07:43;0.93;;;0.93;;
10540;SDS011;5318;50.844;4.272;2022-08-01T13:10:14;1.23;;;1.23;;
10540;SDS011;5318;50.844;4.272;2022-08-01T13:12:40;1.10;;;1.10;;
10540;SDS011;5318;50.844;4.272;2022-08-01T13:15:19;0.90;;;0.90;;
10540;SDS011;5318;50.844;4.272;2022-08-01T13:17:42;1.10;;;1.10;;
10540;SDS011;5318;50.844;4.272;2022-08-01T13:20:09;1.03;;;1.03;;
10540;SDS011;5318;50.844;4.272;2022-08-01T13:22:36;1.30;;;1.30;;
10540;SDS011;5318;50.844;4.272;2022-08-01T13:25:14;1.30;;;1.30;;
10540;SDS011;5318;50.844;4.272;2022-08-01T13:27:40;0.93;;;0.93;;
10540;SDS011;5318;50.844;4.272;2022-08-01T13:30:17;0.97;;;0.97;;
10540;SDS011;5318;50.844;4.272;2022-08-01T13:32:43;1.10;;;1.10;;
10540;SDS011;5318;50.844;4.272;2022-08-01T13:35:10;1.10;;;1.10;;
10540;SDS011;5318;50.844;4.272;2022-08-01T13:37:36;1.02;;;1.02;;
10540;SDS011;5318;50.844;4.272;2022-08-01T13:40:02;1.27;;;1.27;;
10540;SDS011;5318;50.844;4.272;2022-08-01T13:42:29;1.20;;;1.20;;
10540;SDS011;5318;50.844;4.272;2022-08-01T13:44:55;0.97;;;0.97;;
10540;SDS011;5318;50.844;4.272;2022-08-01T13:47:22;1.17;;;1.17;;
10540;SDS011;5318;50.844;4.272;2022-08-01T13:49:48;0.90;;;0.90;;
10540;SDS011;5318;50.844;4.272;2022-08-01T13:52:15;1.07;;;1.07;;
10540;SDS011;5318;50.844;4.272;2022-08-01T13:54:41;1.37;;;1.37;;
10540;SDS011;5318;50.844;4.272;2022-08-01T13:57:09;0.90;;;0.90;;
10540;SDS011;5318;50.844;4.272;2022-08-01T13:59:35;1.10;;;1.10;;
10540;SDS011;5318;50.844;4.272;2022-08-01T14:02:02;1.00;;;1.00;;
10540;SDS011;5318;50.844;4.272;2022-08-01T14:04:28;1.10;;;1.10;;
10540;SDS011;5318;50.844;4.272;2022-08-01T14:06:55;0.83;;;0.83;;
10540;SDS011;5318;50.844;4.272;2022-08-01T14:09:21;1.03;;;1.03;;
10540;SDS011;5318;50.844;4.272;2022-08-01T14:11:48;1.20;;;1.20;;
10540;SDS011;5318;50.844;4.272;2022-08-01T14:14:14;0.90;;;0.90;;
10540;SDS011;5318;50.844;4.272;2022-08-01T14:16:41;1.08;;;1.08;;
10540;SDS011;5318;50.844;4.272;2022-08-01T14:19:07;1.00;;;1.00;;
10540;SDS011;5318;50.844;4.272;2022-08-01T14:21:34;1.27;;;1.27;;
10540;SDS011;5318;50.844;4.272;2022-08-01T14:24:01;1.00;;;1.00;;
10540;SDS011;5318;50.844;4.272;2022-08-01T14:26:27;1.00;;;1.00;;
10540;SDS011;5318;50.844;4.272;2022-08-01T14:28:54;1.15;;;1.15;;
10540;SDS011;5318;50.844;4.272;2022-08-01T14:31:20;1.00;;;1.00;;
10540;SDS011;5318;50.844;4.272;2022-08-01T14:33:47;1.20;;;1.20;;
10540;SDS011;5318;50.844;4.272;2022-08-01T14:36:14;1.30;;;1.30;;
10540;SDS011;5318;50.844;4.272;2022-08-01T14:38:41;0.87;;;0.87;;
10540;SDS011;5318;50.844;4.272;2022-08-01T14:41:07;1.00;;;1.00;;
10540;SDS011;5318;50.844;4.272;2022-08-01T14:43:34;1.20;;;1.20;;
10540;SDS011;5318;50.844;4.272;2022-08-01T14:46:00;0.90;;;0.90;;
10540;SDS011;5318;50.844;4.272;2022-08-01T14:48:27;1.00;;;1.00;;
10540;SDS011;5318;50.844;4.272;2022-08-01T14:50:53;1.10;;;1.10;;
10540;SDS011;5318;50.844;4.272;2022-08-01T14:53:20;1.10;;;1.10;;
10540;SDS011;5318;50.844;4.272;2022-08-01T14:55:46;1.00;;;1.00;;
10540;SDS011;5318;50.844;4.272;2022-08-01T14:58:13;1.23;;;1.23;;
10540;SDS011;5318;50.844;4.272;2022-08-01T15:00:40;1.10;;;1.10;;
10540;SDS011;5318;50.844;4.272;2022-08-01T15:03:07;1.10;;;1.10;;
10540;SDS011;5318;50.844;4.272;2022-08-01T15:05:33;1.23;;;1.23;;
10540;SDS011;5318;50.844;4.272;2022-08-01T15:08:00;0.93;;;0.93;;
10540;SDS011;5318;50.844;4.272;2022-08-01T15:10:26;1.10;;;1.10;;
10540;SDS011;5318;50.844;4.272;2022-08-01T15:12:53;1.17;;;1.17;;
10540;SDS011;5318;50.844;4.272;2022-08-01T15:15:20;1.15;;;1.15;;
10540;SDS011;5318;50.844;4.272;2022-08-01T15:17:46;1.15;;;1.15;;
10540;SDS011;5318;50.844;4.272;2022-08-01T15:20:13;1.13;;;1.13;;
10540;SDS011;5318;50.844;4.272;2022-08-01T15:22:40;1.00;;;1.00;;
10540;SDS011;5318;50.844;4.272;2022-08-01T15:25:07;1.30;;;1.30;;
10540;SDS011;5318;50.844;4.272;2022-08-01T15:27:34;1.20;;;1.20;;
10540;SDS011;5318;50.844;4.272;2022-08-01T15:30:00;1.17;;;1.17;;